• Join FlightAware (Why Join?)
  • Login
  • US Flag 
07:40AM EDT


 

Airport Tracker/Info


-or-


 

Live Flight TrackerFlight Track Log ✈ SWA2433 ✈ 10-May-2013 ✈ KTPA - KSAT

Flight Track Log - Related Links

Times and Time Zones

All times are in EDT time to prevent confusion due to time zone crossing. See the SWA2433 flight status page for this flight to view local times or setup timezone preferences in your user account.

Time Position Orientation Groundspeed Altitude Reporting Facility
EDT Latitude Longitude Course Direction KTS MPH feet Rate Location/Type
01:25PM 27.9667 -82.5500 192° South 164 189 800  Level Tampa TRACON
01:27PM 27.9000 -82.5667 192° South 210 242 4,700 3,180 Climbing Tampa TRACON
01:28PM 27.8667 -82.6167 233° Southwest 226 260 8,200 2,520 Climbing Tampa TRACON
01:29PM 27.9619 -82.6833 328° Northwest 249 287 12,000 1,380 Climbing Jacksonville Center
01:30PM 28.0581 -82.7019 350° North 296 341 12,200 1,800 Climbing Jacksonville Center
01:31PM 28.1561 -82.7256 348° North 337 388 15,600 3,000 Climbing Jacksonville Center
01:32PM 28.2564 -82.7442 351° North 357 411 18,200 2,520 Climbing Jacksonville Center
01:33PM 28.3628 -82.7700 348° North 370 426 20,700 2,580 Climbing Jacksonville Center
01:34PM 28.4733 -82.7933 349° North 390 449 23,400 2,580 Climbing Jacksonville Center
01:35PM 28.5881 -82.8217 348° North 402 463 25,900 2,160 Climbing Jacksonville Center
01:36PM 28.7156 -82.8192 North 414 476 27,800 1,560 Climbing Jacksonville Center
01:37PM 28.8406 -82.8144 North 422 486 29,100 1,800 Climbing Jacksonville Center
01:38PM 28.9700 -82.8072 North 445 512 31,400 1,560 Climbing Jacksonville Center
01:39PM 29.0953 -82.8000 North 445 512 32,300 1,440 Climbing Jacksonville Center
01:40PM 29.2142 -82.8189 352° North 443 510 34,300 1,800 Climbing Jacksonville Center
01:41PM 29.3250 -82.8689 339° North 425 489 36,000 1,440 Climbing Jacksonville Center
01:42PM 29.4314 -82.9139 340° North 415 478 37,200 960 Climbing Jacksonville Center
01:43PM 29.5192 -82.9736 329° Northwest 409 471 38,000 360 Climbing Jacksonville Center
01:44PM 29.5669 -83.0861 296° West 383 441 38,000  Level Jacksonville Center
01:45PM 29.6147 -83.1983 296° West 388 447 38,000  Level Jacksonville Center
01:46PM 29.6667 -83.3206 296° West 388 447 38,000  Level Jacksonville Center
01:47PM 29.7142 -83.4353 296° West 388 447 38,000  Level Jacksonville Center
01:48PM 29.7617 -83.5458 296° West 393 452 38,000  Level Jacksonville Center
01:49PM 29.8092 -83.6586 296° West 393 452 38,000  Level Jacksonville Center
01:50PM 29.8564 -83.7692 296° West 393 452 38,000  Level Jacksonville Center
01:51PM 29.9036 -83.8797 296° West 388 447 38,000  Level Jacksonville Center
01:52PM 29.9486 -83.9928 295° West 383 441 38,000  Level Jacksonville Center
01:53PM 29.9956 -84.1061 296° West 383 441 38,000  Level Jacksonville Center
01:54PM 30.0364 -84.2075 295° West 383 441 38,000  Level Jacksonville Center
01:55PM 30.0853 -84.3183 297° West 383 441 38,000  Level Jacksonville Center
01:56PM 30.1319 -84.4344 295° West 383 441 38,000  Level Jacksonville Center
01:57PM 30.1806 -84.5481 296° West 383 441 38,000  Level Jacksonville Center
01:58PM 30.2269 -84.6644 295° West 395 455 38,000  Level Jacksonville Center
01:59PM 30.2733 -84.7806 295° West 395 455 38,000  Level Jacksonville Center
02:00PM 30.3197 -84.8947 295° West 395 455 38,000  Level Jacksonville Center
02:01PM 30.3658 -85.0089 295° West 395 455 38,000  Level Jacksonville Center
02:02PM 30.4139 -85.1256 296° West 395 455 38,000  Level Jacksonville Center
02:03PM 30.4578 -85.2397 294° West 395 455 38,000  Level Jacksonville Center
02:04PM 30.5039 -85.3517 296° West 395 455 38,000  Level Jacksonville Center
02:05PM 30.5517 -85.4689 295° West 395 455 38,000  Level Jacksonville Center
02:06PM 30.5972 -85.5833 295° West 395 455 38,000  Level Jacksonville Center
02:07PM 30.6428 -85.6981 295° West 395 455 38,000  Level Jacksonville Center
02:08PM 30.6903 -85.8181 295° West 395 455 38,000  Level Jacksonville Center
02:09PM 30.7356 -85.9353 294° West 400 460 38,000  Level Jacksonville Center
02:10PM 30.7806 -86.0503 295° West 400 460 38,000  Level Jacksonville Center
02:11PM 30.8172 -86.1725 289° West 400 460 38,000  Level Jacksonville Center
02:12PM 30.8181 -86.2983 270° West 390 449 38,000  Level Jacksonville Center
02:13PM 30.8208 -86.4292 271° West 396 456 38,000  Level Jacksonville Center
02:14PM 30.8236 -86.5525 272° West 396 456 38,000  Level Jacksonville Center
02:15PM 30.8283 -86.6761 273° West 396 456 38,000  Level Jacksonville Center
02:16PM 30.8203 -86.8014 266° West 391 450 38,000  Level Jacksonville Center
02:17PM 30.8122 -86.9219 266° West 386 444 38,000  Level Jacksonville Center
02:18PM 30.8061 -87.0475 267° West 386 444 38,000  Level Jacksonville Center
02:21PM 30.7908 -87.3172 266° West 378 435 38,000  Level Houston Center
02:22PM 30.7817 -87.4622 266° West 375 432 38,000  Level Houston Center
02:23PM 30.7756 -87.5825 267° West 372 428 38,000  Level Houston Center
02:24PM 30.7672 -87.7100 266° West 376 433 38,000  Level Houston Center
02:25PM 30.7589 -87.8308 265° West 376 433 38,000  Level Houston Center
02:26PM 30.7511 -87.9511 266° West 376 433 38,000  Level Houston Center
02:27PM 30.7433 -88.0708 266° West 373 429 38,000  Level Houston Center
02:28PM 30.7347 -88.1908 265° West 372 428 38,000  Level Houston Center
02:29PM 30.7244 -88.3364 265° West 378 435 38,000  Level Houston Center
02:30PM 30.7178 -88.4578 266° West 378 435 38,000  Level Houston Center
02:31PM 30.7083 -88.5808 265° West 382 440 38,000  Level Houston Center
02:32PM 30.6992 -88.7081 265° West 389 448 38,000  Level Houston Center
02:33PM 30.6886 -88.8339 264° West 391 450 38,000  Level Houston Center
02:34PM 30.6814 -88.9578 266° West 396 456 38,000  Level Houston Center
02:35PM 30.6703 -89.1100 265° West 398 458 38,000  Level Houston Center
02:36PM 30.6597 -89.2372 265° West 399 459 38,000  Level Houston Center
02:37PM 30.6506 -89.3606 265° West 388 447 38,000 -60 Level Houston Center
02:38PM 30.6425 -89.4831 266° West 383 441 37,900  Descending Houston Center
02:39PM 30.6322 -89.6053 264° West 382 440 38,000  Climbing Houston Center
02:40PM 30.6217 -89.7536 265° West 389 448 38,000  Level Houston Center
02:41PM 30.6108 -89.8764 264° West 387 445 38,000  Level Houston Center
02:42PM 30.6000 -89.9997 264° West 391 450 38,000  Level Houston Center
02:43PM 30.5883 -90.1222 264° West 389 448 38,000  Level Houston Center
02:44PM 30.5767 -90.2708 265° West 390 449 38,000  Level Houston Center
02:45PM 30.5658 -90.3953 264° West 390 449 38,000  Level Houston Center
02:47PM 30.5539 -90.5181 264° West 387 445 38,000  Level Houston Center
02:48PM 30.5450 -90.6411 265° West 385 443 38,000  Level Houston Center
02:49PM 30.5325 -90.7633 263° West 384 442 38,000  Level Houston Center
02:50PM 30.5203 -90.8886 264° West 390 449 38,000  Level Houston Center
02:51PM 30.5067 -91.0386 264° West 392 451 38,000 540 Level Houston Center
02:52PM 30.4964 -91.1658 265° West 397 457 39,200 900 Climbing Houston Center
02:53PM 30.4828 -91.2944 263° West 402 463 39,900 360 Climbing Houston Center
02:54PM 30.4608 -91.4206 259° West 401 461 40,000  Climbing Houston Center
02:55PM 30.4389 -91.5458 259° West 399 459 40,000  Level Houston Center
02:56PM 30.4231 -91.6975 263° West 397 457 40,000  Level Houston Center
02:57PM 30.4108 -91.8069 263° West 396 456 40,000  Level Houston Center
02:58PM 30.3919 -91.9597 262° West 398 458 40,000  Level Houston Center
02:59PM 30.3781 -92.0850 263° West 394 453 40,000  Level Houston Center
03:00PM 30.3642 -92.2117 263° West 395 455 40,000  Level Houston Center
03:01PM 30.3481 -92.3378 262° West 394 453 40,000  Level Houston Center
03:02PM 30.3339 -92.4594 262° West 390 449 40,000  Level Houston Center
03:03PM 30.3189 -92.5822 262° West 388 447 40,000 -60 Level Houston Center
03:04PM 30.3022 -92.7253 262° West 375 432 39,900  Descending Houston Center
03:05PM 30.2889 -92.8369 262° West 356 410 40,000  Climbing Houston Center
03:06PM 30.2742 -92.9514 262° West 358 412 40,000  Level Houston Center
03:07PM 30.2606 -93.0672 262° West 364 419 40,000  Level Houston Center
03:08PM 30.2453 -93.1831 261° West 363 418 40,000  Level Houston Center
03:09PM 30.2308 -93.2992 262° West 364 419 40,000  Level Houston Center
03:10PM 30.2150 -93.4186 261° West 367 422 40,000  Level Houston Center
03:11PM 30.1997 -93.5378 262° West 371 427 40,000  Level Houston Center
03:12PM 30.1825 -93.6814 262° West 373 429 40,000  Level Houston Center
03:13PM 30.1678 -93.8000 262° West 373 429 40,000  Level Houston Center
03:14PM 30.1519 -93.9186 261° West 373 429 40,000  Level Houston Center
03:15PM 30.1364 -94.0383 261° West 379 436 40,000  Level Houston Center
03:17PM 30.1197 -94.1592 261° West 381 438 40,000  Level Houston Center
03:18PM 30.1031 -94.2797 261° West 380 437 40,000  Level Houston Center
03:19PM 30.0839 -94.4303 262° West 392 451 40,000  Level Houston Center
03:20PM 30.0697 -94.5364 261° West 394 453 40,000  Level Houston Center
03:21PM 30.0492 -94.6872 261° West 392 451 40,000  Level Houston Center
03:22PM 30.0336 -94.8067 261° West 389 448 40,000  Level Houston Center
03:23PM 30.0175 -94.9278 261° West 386 444 40,000  Level Houston Center
03:24PM 30.0369 -95.0497 280° West 397 457 40,000  Level Houston Center
03:25PM 30.0644 -95.1683 285° West 388 447 40,000  Level Houston Center
03:26PM 30.0925 -95.3089 283° West 379 436 40,000  Level Houston Center
03:27PM 30.1075 -95.4228 279° West 367 422 40,000  Level Houston Center
03:28PM 30.1242 -95.5375 280° West 365 420 40,000  Level Houston Center
03:29PM 30.1367 -95.6517 277° West 362 417 40,000  Level Houston Center
03:30PM 30.1322 -95.7642 267° West 353 406 40,000  Level Houston Center
03:31PM 30.1172 -95.8967 263° West 347 399 40,000 -300 Level Houston Center
03:32PM 30.1053 -96.0058 263° West 345 397 39,400 -780 Descending Houston Center
03:33PM 30.0928 -96.1267 263° West 349 402 38,400 -960 Descending Houston Center
03:34PM 30.0792 -96.2450 262° West 369 425 37,500 -960 Descending Houston Center
03:35PM 30.0667 -96.3611 263° West 368 423 36,500 -1,860 Descending Houston Center
03:36PM 30.0550 -96.4761 263° West 363 418 33,700 -3,300 Descending Houston Center
03:37PM 30.0419 -96.5953 263° West 371 427 29,700 -3,000 Descending Houston Center
03:38PM 30.0281 -96.7217 263° West 394 453 27,600 -1,620 Descending Houston Center
03:39PM 30.0114 -96.8700 263° West 393 452 26,400 -1,080 Descending Houston Center
03:40PM 29.9981 -96.9922 263° West 388 447 25,400 -1,020 Descending Houston Center
03:41PM 29.9850 -97.1103 263° West 376 433 24,400 -720 Descending Houston Center
03:42PM 29.9711 -97.2297 262° West 378 435 24,000 -240 Descending Houston Center
03:43PM 29.9575 -97.3494 263° West 379 436 24,000 -1,320 Level Houston Center
03:44PM 29.9417 -97.4883 263° West 369 425 21,300 -2,520 Descending Houston Center
03:45PM 29.9281 -97.5989 262° West 354 407 18,900 -2,520 Descending Houston Center
03:46PM 29.9197 -97.6661 262° West 341 392 17,400 -2,640 Descending Houston Center
03:46PM 29.9144 -97.7147 263° West 341 392 16,200 -2,400 Descending Houston Center
03:48PM 29.9019 -97.8197 262° West 332 382 13,800 -1,680 Descending Houston Center
03:48PM 29.8761 -97.9103 252° West 327 376 13,000 -1,020 Descending Houston Center
03:50PM 29.8308 -98.0186 244° Southwest 324 373 11,700 -1,320 Descending Houston Center
03:51PM 29.7900 -98.1169 244° Southwest 317 365 10,200 -1,320 Descending Houston Center
03:52PM 29.7581 -98.1947 245° Southwest 294 338 9,200 -1,380 Descending Houston Center
03:53PM 29.7178 -98.2869 243° Southwest 281 323 7,400 -1,380 Descending Houston Center
03:53PM 29.6925 -98.3472 244° Southwest 276 318 6,600 -780 Descending Houston Center
03:55PM 29.6594 -98.4450 249° West 231 266 5,800 -720 Descending Houston Center
03:55PM 29.6658 -98.4900 279° West 235 270 5,200 -1,020 Descending Houston Center
03:56PM 29.6692 -98.5119 280° West 236 272 4,900 -720 Descending Houston Center
03:57PM 29.6606 -98.5719 261° West 197 227 4,300 -900 Descending Houston Center
03:58PM 29.6153 -98.5764 185° South 153 176 3,100 -1,020 Descending Houston Center
03:59PM 29.5900 -98.5453 133° Southeast 134 154 2,300 -780 Descending Houston Center
04:00PM 29.5644 -98.5122 132° Southeast 129 148 1,500 -780 Descending Houston Center
04:01PM 29.5408 -98.4817 132° Southeast 130 150 800 -720 Descending Houston Center
04:03PM 29.5340 -98.4691 174° South  Level Estimated
04:10PM 29.5333 -98.4667 16° North  Level FlightAware Approximate